sensor_id;sensor_type;location;lat;lon;timestamp;pressure;altitude;pressure_sealevel;temperature;humidity
26376;BME280;30544;42.196;24.336;2023-02-01T00:01:05;99289.53;;;3.69;66.74
26376;BME280;30544;42.196;24.336;2023-02-01T00:03:32;99298.66;;;3.76;66.43
26376;BME280;30544;42.196;24.336;2023-02-01T00:06:00;99304.56;;;3.73;65.48
26376;BME280;30544;42.196;24.336;2023-02-01T00:08:27;99295.72;;;3.84;66.17
26376;BME280;30544;42.196;24.336;2023-02-01T00:11:00;99298.03;;;3.81;65.93
26376;BME280;30544;42.196;24.336;2023-02-01T00:13:28;99309.00;;;3.81;65.81
26376;BME280;30544;42.196;24.336;2023-02-01T00:16:04;99317.88;;;3.76;65.85
26376;BME280;30544;42.196;24.336;2023-02-01T00:18:31;99315.16;;;3.83;66.02
26376;BME280;30544;42.196;24.336;2023-02-01T00:20:58;99312.28;;;3.63;66.22
26376;BME280;30544;42.196;24.336;2023-02-01T00:23:24;99317.84;;;3.70;66.73
26376;BME280;30544;42.196;24.336;2023-02-01T00:25:51;99313.31;;;3.55;66.38
26376;BME280;30544;42.196;24.336;2023-02-01T00:28:18;99315.44;;;3.60;67.27
26376;BME280;30544;42.196;24.336;2023-02-01T00:30:45;99318.88;;;3.41;67.09
26376;BME280;30544;42.196;24.336;2023-02-01T00:33:13;99315.13;;;3.48;67.62
26376;BME280;30544;42.196;24.336;2023-02-01T00:35:40;99315.69;;;3.37;67.55
26376;BME280;30544;42.196;24.336;2023-02-01T00:38:07;99315.56;;;3.52;66.87
26376;BME280;30544;42.196;24.336;2023-02-01T00:40:33;99318.69;;;3.42;67.64
26376;BME280;30544;42.196;24.336;2023-02-01T00:43:00;99319.28;;;3.38;68.96
26376;BME280;30544;42.196;24.336;2023-02-01T00:45:27;99313.53;;;3.32;68.72
26376;BME280;30544;42.196;24.336;2023-02-01T00:47:53;99311.31;;;3.43;68.10
26376;BME280;30544;42.196;24.336;2023-02-01T00:50:22;99314.59;;;3.31;67.89
26376;BME280;30544;42.196;24.336;2023-02-01T00:52:48;99313.25;;;3.21;68.19
26376;BME280;30544;42.196;24.336;2023-02-01T00:55:15;99312.56;;;3.40;67.13
26376;BME280;30544;42.196;24.336;2023-02-01T00:57:42;99302.00;;;3.37;67.21
26376;BME280;30544;42.196;24.336;2023-02-01T01:00:10;99296.31;;;3.39;66.52
26376;BME280;30544;42.196;24.336;2023-02-01T01:02:37;99306.22;;;3.40;67.03
26376;BME280;30544;42.196;24.336;2023-02-01T01:05:04;99298.97;;;3.32;67.29
26376;BME280;30544;42.196;24.336;2023-02-01T01:07:32;99296.13;;;3.47;65.88
26376;BME280;30544;42.196;24.336;2023-02-01T01:09:59;99291.69;;;3.46;66.22
26376;BME280;30544;42.196;24.336;2023-02-01T01:12:25;99288.50;;;3.42;65.65
26376;BME280;30544;42.196;24.336;2023-02-01T01:14:52;99298.63;;;3.42;65.48
26376;BME280;30544;42.196;24.336;2023-02-01T01:17:19;99288.66;;;3.62;65.35
26376;BME280;30544;42.196;24.336;2023-02-01T01:19:45;99287.78;;;3.55;65.01
26376;BME280;30544;42.196;24.336;2023-02-01T01:22:12;99287.59;;;3.63;65.57
26376;BME280;30544;42.196;24.336;2023-02-01T01:24:40;99292.63;;;3.53;65.98
26376;BME280;30544;42.196;24.336;2023-02-01T01:27:07;99293.91;;;3.57;65.61
26376;BME280;30544;42.196;24.336;2023-02-01T01:29:34;99296.44;;;3.58;65.30
26376;BME280;30544;42.196;24.336;2023-02-01T01:32:00;99296.56;;;3.50;66.12
26376;BME280;30544;42.196;24.336;2023-02-01T01:34:27;99301.00;;;3.51;65.03
26376;BME280;30544;42.196;24.336;2023-02-01T01:36:54;99306.69;;;3.50;65.85
26376;BME280;30544;42.196;24.336;2023-02-01T01:39:21;99297.22;;;3.52;66.17
26376;BME280;30544;42.196;24.336;2023-02-01T01:41:49;99290.72;;;3.53;65.63
26376;BME280;30544;42.196;24.336;2023-02-01T01:47:19;99283.56;;;3.59;66.07
26376;BME280;30544;42.196;24.336;2023-02-01T01:49:46;99293.06;;;3.56;66.94
26376;BME280;30544;42.196;24.336;2023-02-01T01:52:14;99285.88;;;3.55;66.78
26376;BME280;30544;42.196;24.336;2023-02-01T01:54:43;99284.38;;;3.53;67.46
26376;BME280;30544;42.196;24.336;2023-02-01T01:57:16;99283.38;;;3.60;66.78
26376;BME280;30544;42.196;24.336;2023-02-01T01:59:48;99285.66;;;3.57;66.80
26376;BME280;30544;42.196;24.336;2023-02-01T02:02:17;99274.94;;;3.62;67.59
26376;BME280;30544;42.196;24.336;2023-02-01T02:04:44;99279.38;;;3.63;67.43
26376;BME280;30544;42.196;24.336;2023-02-01T02:07:14;99275.16;;;3.67;66.60
26376;BME280;30544;42.196;24.336;2023-02-01T02:09:42;99283.66;;;3.72;66.75
26376;BME280;30544;42.196;24.336;2023-02-01T02:12:09;99281.47;;;3.61;67.45
26376;BME280;30544;42.196;24.336;2023-02-01T02:14:37;99279.91;;;3.52;68.04
26376;BME280;30544;42.196;24.336;2023-02-01T02:17:20;99284.22;;;3.61;66.70
26376;BME280;30544;42.196;24.336;2023-02-01T02:23:03;99296.72;;;3.70;67.33
26376;BME280;30544;42.196;24.336;2023-02-01T02:26:06;99292.13;;;3.77;66.26
26376;BME280;30544;42.196;24.336;2023-02-01T02:28:59;99295.94;;;3.83;66.81
26376;BME280;30544;42.196;24.336;2023-02-01T02:31:55;99297.06;;;3.60;67.50
26376;BME280;30544;42.196;24.336;2023-02-01T02:34:28;99305.66;;;3.51;67.02
26376;BME280;30544;42.196;24.336;2023-02-01T02:37:01;99314.16;;;3.56;67.36
26376;BME280;30544;42.196;24.336;2023-02-01T02:39:38;99305.91;;;3.56;67.64
26376;BME280;30544;42.196;24.336;2023-02-01T02:42:13;99308.00;;;3.54;68.33
26376;BME280;30544;42.196;24.336;2023-02-01T02:45:04;99312.25;;;3.56;67.58
26376;BME280;30544;42.196;24.336;2023-02-01T02:47:57;99327.50;;;3.66;67.46
26376;BME280;30544;42.196;24.336;2023-02-01T02:50:34;99315.63;;;3.58;68.43
26376;BME280;30544;42.196;24.336;2023-02-01T02:53:25;99313.34;;;3.62;68.27
26376;BME280;30544;42.196;24.336;2023-02-01T02:56:12;99301.94;;;3.65;68.20
26376;BME280;30544;42.196;24.336;2023-02-01T02:58:58;99309.97;;;3.67;67.32
26376;BME280;30544;42.196;24.336;2023-02-01T03:01:43;99306.38;;;3.66;67.38
26376;BME280;30544;42.196;24.336;2023-02-01T03:04:27;99304.50;;;3.67;66.70
26376;BME280;30544;42.196;24.336;2023-02-01T03:06:55;99312.81;;;3.52;67.62
26376;BME280;30544;42.196;24.336;2023-02-01T03:09:26;99311.31;;;3.77;67.08
26376;BME280;30544;42.196;24.336;2023-02-01T03:11:56;99316.56;;;3.72;67.68
26376;BME280;30544;42.196;24.336;2023-02-01T03:14:44;99302.66;;;3.46;67.89
26376;BME280;30544;42.196;24.336;2023-02-01T03:17:15;99306.59;;;3.65;67.40
26376;BME280;30544;42.196;24.336;2023-02-01T03:19:46;99302.22;;;3.70;66.39
26376;BME280;30544;42.196;24.336;2023-02-01T03:22:19;99303.59;;;3.53;66.86
26376;BME280;30544;42.196;24.336;2023-02-01T03:24:49;99309.38;;;3.37;68.22
26376;BME280;30544;42.196;24.336;2023-02-01T03:27:20;99308.66;;;3.28;67.00
26376;BME280;30544;42.196;24.336;2023-02-01T03:29:52;99292.44;;;3.33;67.42
26376;BME280;30544;42.196;24.336;2023-02-01T03:32:21;99292.91;;;3.37;66.27
26376;BME280;30544;42.196;24.336;2023-02-01T03:34:49;99298.34;;;3.30;67.05
26376;BME280;30544;42.196;24.336;2023-02-01T03:37:23;99295.19;;;3.33;65.82
26376;BME280;30544;42.196;24.336;2023-02-01T03:39:56;99303.63;;;3.31;65.94
26376;BME280;30544;42.196;24.336;2023-02-01T03:42:28;99295.16;;;3.26;66.86
26376;BME280;30544;42.196;24.336;2023-02-01T03:45:02;99298.53;;;3.28;66.31
26376;BME280;30544;42.196;24.336;2023-02-01T03:47:34;99296.44;;;3.30;66.12
26376;BME280;30544;42.196;24.336;2023-02-01T03:50:05;99305.59;;;3.16;67.02
26376;BME280;30544;42.196;24.336;2023-02-01T03:52:39;99316.13;;;3.13;67.14
26376;BME280;30544;42.196;24.336;2023-02-01T03:55:09;99308.09;;;3.11;67.14
26376;BME280;30544;42.196;24.336;2023-02-01T03:57:43;99322.88;;;3.17;66.70
26376;BME280;30544;42.196;24.336;2023-02-01T04:00:16;99323.72;;;3.17;66.66
26376;BME280;30544;42.196;24.336;2023-02-01T04:02:43;99320.22;;;3.02;65.53
26376;BME280;30544;42.196;24.336;2023-02-01T04:05:10;99324.00;;;3.22;65.64
26376;BME280;30544;42.196;24.336;2023-02-01T04:07:38;99324.94;;;3.08;64.79
26376;BME280;30544;42.196;24.336;2023-02-01T04:10:06;99317.88;;;2.99;65.49
26376;BME280;30544;42.196;24.336;2023-02-01T04:12:33;99326.38;;;3.04;64.34
26376;BME280;30544;42.196;24.336;2023-02-01T04:15:00;99326.75;;;3.22;63.67
26376;BME280;30544;42.196;24.336;2023-02-01T04:17:27;99330.13;;;3.24;63.51
26376;BME280;30544;42.196;24.336;2023-02-01T04:19:53;99339.78;;;3.42;61.70
26376;BME280;30544;42.196;24.336;2023-02-01T04:22:20;99344.72;;;3.53;61.80
26376;BME280;30544;42.196;24.336;2023-02-01T04:24:48;99343.19;;;3.78;60.35
26376;BME280;30544;42.196;24.336;2023-02-01T04:27:15;99336.94;;;3.56;60.92
26376;BME280;30544;42.196;24.336;2023-02-01T04:29:42;99337.78;;;3.57;61.51
26376;BME280;30544;42.196;24.336;2023-02-01T04:32:10;99324.94;;;3.64;61.35
26376;BME280;30544;42.196;24.336;2023-02-01T04:34:37;99341.66;;;3.69;60.29
26376;BME280;30544;42.196;24.336;2023-02-01T04:37:04;99334.75;;;3.80;60.38
26376;BME280;30544;42.196;24.336;2023-02-01T04:39:30;99327.78;;;3.77;59.75
26376;BME280;30544;42.196;24.336;2023-02-01T04:41:58;99323.34;;;3.76;60.51
26376;BME280;30544;42.196;24.336;2023-02-01T04:44:25;99328.84;;;3.76;59.55
26376;BME280;30544;42.196;24.336;2023-02-01T04:46:52;99329.25;;;3.73;60.24
26376;BME280;30544;42.196;24.336;2023-02-01T04:49:19;99319.06;;;3.67;60.81
26376;BME280;30544;42.196;24.336;2023-02-01T04:51:47;99344.47;;;3.82;60.34
26376;BME280;30544;42.196;24.336;2023-02-01T04:54:13;99327.22;;;3.88;59.84
26376;BME280;30544;42.196;24.336;2023-02-01T04:56:40;99329.47;;;3.78;60.73
26376;BME280;30544;42.196;24.336;2023-02-01T04:59:10;99334.97;;;3.78;59.44
26376;BME280;30544;42.196;24.336;2023-02-01T05:01:37;99348.38;;;3.67;60.67
26376;BME280;30544;42.196;24.336;2023-02-01T05:04:04;99346.56;;;3.74;60.39
26376;BME280;30544;42.196;24.336;2023-02-01T05:06:31;99349.97;;;3.82;60.63
26376;BME280;30544;42.196;24.336;2023-02-01T05:08:58;99357.34;;;3.82;60.78
26376;BME280;30544;42.196;24.336;2023-02-01T05:11:24;99347.63;;;3.79;60.73
26376;BME280;30544;42.196;24.336;2023-02-01T05:14:10;99350.38;;;3.79;59.10
26376;BME280;30544;42.196;24.336;2023-02-01T05:16:37;99351.09;;;3.88;58.71
26376;BME280;30544;42.196;24.336;2023-02-01T05:19:03;99347.03;;;3.84;59.33
26376;BME280;30544;42.196;24.336;2023-02-01T05:21:30;99347.81;;;4.06;58.72
26376;BME280;30544;42.196;24.336;2023-02-01T05:23:58;99354.28;;;3.98;58.88
26376;BME280;30544;42.196;24.336;2023-02-01T05:26:48;99344.31;;;4.25;57.95
26376;BME280;30544;42.196;24.336;2023-02-01T05:29:17;99344.09;;;4.27;57.45
26376;BME280;30544;42.196;24.336;2023-02-01T05:31:45;99340.09;;;4.29;57.04
26376;BME280;30544;42.196;24.336;2023-02-01T05:34:12;99344.31;;;4.32;56.23
26376;BME280;30544;42.196;24.336;2023-02-01T05:36:39;99346.09;;;4.46;55.50
26376;BME280;30544;42.196;24.336;2023-02-01T05:39:06;99346.94;;;4.46;56.17
26376;BME280;30544;42.196;24.336;2023-02-01T05:41:33;99338.19;;;4.23;55.62
26376;BME280;30544;42.196;24.336;2023-02-01T05:44:00;99341.56;;;4.25;55.27
26376;BME280;30544;42.196;24.336;2023-02-01T05:46:28;99338.00;;;4.31;55.87
26376;BME280;30544;42.196;24.336;2023-02-01T05:48:54;99351.06;;;4.22;55.20
26376;BME280;30544;42.196;24.336;2023-02-01T05:51:21;99356.41;;;4.37;56.35
26376;BME280;30544;42.196;24.336;2023-02-01T05:53:48;99356.16;;;4.32;56.24
26376;BME280;30544;42.196;24.336;2023-02-01T05:56:15;99352.56;;;4.32;54.87
26376;BME280;30544;42.196;24.336;2023-02-01T05:58:41;99352.63;;;4.38;56.48
26376;BME280;30544;42.196;24.336;2023-02-01T06:01:08;99355.19;;;4.53;54.92
26376;BME280;30544;42.196;24.336;2023-02-01T06:03:36;99350.09;;;4.50;53.79
26376;BME280;30544;42.196;24.336;2023-02-01T06:06:04;99355.03;;;4.68;54.49
26376;BME280;30544;42.196;24.336;2023-02-01T06:08:31;99357.84;;;4.88;53.53
26376;BME280;30544;42.196;24.336;2023-02-01T06:10:58;99352.31;;;4.81;53.52
26376;BME280;30544;42.196;24.336;2023-02-01T06:13:25;99357.59;;;4.76;54.42
26376;BME280;30544;42.196;24.336;2023-02-01T06:15:52;99357.59;;;4.76;54.32
26376;BME280;30544;42.196;24.336;2023-02-01T06:18:19;99359.75;;;4.87;54.22
26376;BME280;30544;42.196;24.336;2023-02-01T06:20:52;99357.66;;;4.96;53.35
26376;BME280;30544;42.196;24.336;2023-02-01T06:23:19;99351.09;;;4.90;51.83
26376;BME280;30544;42.196;24.336;2023-02-01T06:25:50;99362.25;;;4.82;52.21
26376;BME280;30544;42.196;24.336;2023-02-01T06:28:17;99357.47;;;5.04;53.01
26376;BME280;30544;42.196;24.336;2023-02-01T06:30:44;99353.03;;;5.09;51.94
26376;BME280;30544;42.196;24.336;2023-02-01T06:33:11;99352.56;;;4.99;52.59
26376;BME280;30544;42.196;24.336;2023-02-01T06:35:40;99350.31;;;5.23;51.04
26376;BME280;30544;42.196;24.336;2023-02-01T06:38:10;99349.84;;;5.19;51.89
26376;BME280;30544;42.196;24.336;2023-02-01T06:40:37;99366.16;;;5.21;51.20
26376;BME280;30544;42.196;24.336;2023-02-01T06:43:04;99354.75;;;5.24;51.68
26376;BME280;30544;42.196;24.336;2023-02-01T06:45:31;99366.38;;;5.32;51.07
26376;BME280;30544;42.196;24.336;2023-02-01T06:47:58;99361.75;;;5.39;51.55
26376;BME280;30544;42.196;24.336;2023-02-01T06:50:26;99365.31;;;5.53;50.87
26376;BME280;30544;42.196;24.336;2023-02-01T06:52:53;99362.16;;;5.43;50.75
26376;BME280;30544;42.196;24.336;2023-02-01T06:55:21;99377.38;;;5.32;51.65
26376;BME280;30544;42.196;24.336;2023-02-01T06:57:48;99373.97;;;5.10;52.30
26376;BME280;30544;42.196;24.336;2023-02-01T07:00:19;99380.16;;;5.39;52.35
26376;BME280;30544;42.196;24.336;2023-02-01T07:02:46;99371.88;;;5.46;52.17
26376;BME280;30544;42.196;24.336;2023-02-01T07:05:13;99374.19;;;5.35;51.72
26376;BME280;30544;42.196;24.336;2023-02-01T07:07:40;99384.56;;;5.53;51.63
26376;BME280;30544;42.196;24.336;2023-02-01T07:10:07;99381.41;;;5.50;52.39
26376;BME280;30544;42.196;24.336;2023-02-01T07:12:35;99388.19;;;5.73;51.98
26376;BME280;30544;42.196;24.336;2023-02-01T07:15:06;99391.78;;;5.61;52.35
26376;BME280;30544;42.196;24.336;2023-02-01T07:17:33;99390.31;;;5.71;52.11
26376;BME280;30544;42.196;24.336;2023-02-01T07:20:00;99390.72;;;5.62;53.28
26376;BME280;30544;42.196;24.336;2023-02-01T07:22:27;99391.56;;;5.82;53.16
26376;BME280;30544;42.196;24.336;2023-02-01T07:24:54;99384.56;;;5.80;53.35
26376;BME280;30544;42.196;24.336;2023-02-01T07:27:21;99387.13;;;5.74;53.06
26376;BME280;30544;42.196;24.336;2023-02-01T07:29:51;99390.72;;;6.01;52.73
26376;BME280;30544;42.196;24.336;2023-02-01T07:32:18;99387.25;;;6.32;52.60
26376;BME280;30544;42.196;24.336;2023-02-01T07:34:45;99395.38;;;6.01;53.48
26376;BME280;30544;42.196;24.336;2023-02-01T07:37:12;99383.50;;;6.14;52.55
26376;BME280;30544;42.196;24.336;2023-02-01T07:39:38;99390.03;;;6.32;52.67
26376;BME280;30544;42.196;24.336;2023-02-01T07:42:05;99396.84;;;6.17;52.33
26376;BME280;30544;42.196;24.336;2023-02-01T07:44:32;99402.50;;;6.35;52.38
26376;BME280;30544;42.196;24.336;2023-02-01T07:47:00;99395.94;;;6.36;52.47
26376;BME280;30544;42.196;24.336;2023-02-01T07:49:27;99396.22;;;6.01;52.91
26376;BME280;30544;42.196;24.336;2023-02-01T07:51:54;99395.94;;;6.43;52.17
26376;BME280;30544;42.196;24.336;2023-02-01T07:54:21;99399.53;;;6.37;52.76
26376;BME280;30544;42.196;24.336;2023-02-01T07:56:48;99393.09;;;6.62;51.83
26376;BME280;30544;42.196;24.336;2023-02-01T07:59:15;99382.81;;;6.89;52.11
26376;BME280;30544;42.196;24.336;2023-02-01T08:01:41;99388.88;;;6.60;51.53
26376;BME280;30544;42.196;24.336;2023-02-01T08:04:10;99394.63;;;6.52;51.26
26376;BME280;30544;42.196;24.336;2023-02-01T08:06:38;99387.84;;;6.48;50.88
26376;BME280;30544;42.196;24.336;2023-02-01T08:09:06;99389.13;;;6.97;50.55
26376;BME280;30544;42.196;24.336;2023-02-01T08:11:36;99386.81;;;6.93;49.83
26376;BME280;30544;42.196;24.336;2023-02-01T08:14:04;99388.84;;;7.05;50.22
26376;BME280;30544;42.196;24.336;2023-02-01T08:16:32;99393.75;;;7.03;49.75
26376;BME280;30544;42.196;24.336;2023-02-01T08:19:00;99389.09;;;7.35;49.35
26376;BME280;30544;42.196;24.336;2023-02-01T08:21:29;99393.66;;;7.22;49.58
26376;BME280;30544;42.196;24.336;2023-02-01T08:24:03;99397.66;;;7.27;49.99
26376;BME280;30544;42.196;24.336;2023-02-01T08:26:30;99397.50;;;7.46;49.63
26376;BME280;30544;42.196;24.336;2023-02-01T08:28:58;99387.19;;;7.35;49.78
26376;BME280;30544;42.196;24.336;2023-02-01T08:31:28;99391.00;;;7.34;49.97
26376;BME280;30544;42.196;24.336;2023-02-01T08:33:56;99400.41;;;7.27;49.82
26376;BME280;30544;42.196;24.336;2023-02-01T08:36:24;99411.47;;;7.20;50.29
26376;BME280;30544;42.196;24.336;2023-02-01T08:38:53;99402.63;;;7.11;50.01
26376;BME280;30544;42.196;24.336;2023-02-01T08:41:23;99406.28;;;6.99;49.50
26376;BME280;30544;42.196;24.336;2023-02-01T08:43:50;99403.41;;;7.18;49.94
26376;BME280;30544;42.196;24.336;2023-02-01T08:46:17;99396.91;;;7.38;49.90
26376;BME280;30544;42.196;24.336;2023-02-01T08:48:45;99400.16;;;6.97;49.95
26376;BME280;30544;42.196;24.336;2023-02-01T08:51:13;99384.22;;;6.99;49.90
26376;BME280;30544;42.196;24.336;2023-02-01T08:53:40;99385.69;;;7.01;50.08
26376;BME280;30544;42.196;24.336;2023-02-01T08:56:10;99390.53;;;7.12;48.87
26376;BME280;30544;42.196;24.336;2023-02-01T08:58:37;99386.94;;;7.43;48.54
26376;BME280;30544;42.196;24.336;2023-02-01T09:01:05;99390.56;;;7.37;48.65
26376;BME280;30544;42.196;24.336;2023-02-01T09:03:33;99386.78;;;7.32;48.95
26376;BME280;30544;42.196;24.336;2023-02-01T09:06:00;99385.84;;;7.44;48.59
26376;BME280;30544;42.196;24.336;2023-02-01T09:08:27;99382.72;;;7.34;49.61
26376;BME280;30544;42.196;24.336;2023-02-01T09:10:58;99379.81;;;7.29;49.43
26376;BME280;30544;42.196;24.336;2023-02-01T09:13:26;99374.47;;;7.34;48.86
26376;BME280;30544;42.196;24.336;2023-02-01T09:15:53;99366.22;;;7.59;48.58
26376;BME280;30544;42.196;24.336;2023-02-01T09:18:20;99378.78;;;7.80;48.43
26376;BME280;30544;42.196;24.336;2023-02-01T09:20:47;99375.31;;;8.28;46.55
26376;BME280;30544;42.196;24.336;2023-02-01T09:23:14;99374.25;;;8.84;45.77
26376;BME280;30544;42.196;24.336;2023-02-01T09:25:40;99375.81;;;8.61;46.57
26376;BME280;30544;42.196;24.336;2023-02-01T09:28:07;99372.47;;;8.41;45.89
26376;BME280;30544;42.196;24.336;2023-02-01T09:30:36;99364.19;;;8.71;45.71
26376;BME280;30544;42.196;24.336;2023-02-01T09:33:03;99367.94;;;8.95;46.51
26376;BME280;30544;42.196;24.336;2023-02-01T09:35:30;99370.75;;;8.58;46.03
26376;BME280;30544;42.196;24.336;2023-02-01T09:37:57;99354.44;;;9.17;44.98
26376;BME280;30544;42.196;24.336;2023-02-01T09:40:24;99330.38;;;8.87;45.89
26376;BME280;30544;42.196;24.336;2023-02-01T09:43:09;99344.00;;;8.70;45.86
26376;BME280;30544;42.196;24.336;2023-02-01T09:45:49;99343.59;;;9.15;45.42
26376;BME280;30544;42.196;24.336;2023-02-01T09:48:20;99339.63;;;9.11;46.20
26376;BME280;30544;42.196;24.336;2023-02-01T09:50:50;99330.44;;;8.51;46.77
26376;BME280;30544;42.196;24.336;2023-02-01T09:53:22;99335.13;;;8.50;46.97
26376;BME280;30544;42.196;24.336;2023-02-01T09:55:54;99341.56;;;9.22;46.37
26376;BME280;30544;42.196;24.336;2023-02-01T09:58:25;99351.53;;;8.63;46.76
26376;BME280;30544;42.196;24.336;2023-02-01T10:00:57;99344.06;;;9.12;44.99
26376;BME280;30544;42.196;24.336;2023-02-01T10:03:26;99350.13;;;8.72;45.26
26376;BME280;30544;42.196;24.336;2023-02-01T10:06:10;99336.88;;;8.63;46.88
26376;BME280;30544;42.196;24.336;2023-02-01T10:08:55;99342.47;;;9.04;45.80
26376;BME280;30544;42.196;24.336;2023-02-01T10:11:32;99359.22;;;8.80;45.67
26376;BME280;30544;42.196;24.336;2023-02-01T10:14:20;99347.56;;;9.61;44.57
26376;BME280;30544;42.196;24.336;2023-02-01T10:16:56;99346.56;;;9.02;45.43
26376;BME280;30544;42.196;24.336;2023-02-01T10:19:36;99350.97;;;8.73;46.45
26376;BME280;30544;42.196;24.336;2023-02-01T10:22:08;99355.59;;;9.51;45.60
26376;BME280;30544;42.196;24.336;2023-02-01T10:24:39;99371.34;;;8.79;45.52
26376;BME280;30544;42.196;24.336;2023-02-01T10:27:13;99348.19;;;9.21;44.90
26376;BME280;30544;42.196;24.336;2023-02-01T10:29:42;99355.03;;;9.72;43.53
26376;BME280;30544;42.196;24.336;2023-02-01T10:32:14;99335.63;;;9.49;44.19
26376;BME280;30544;42.196;24.336;2023-02-01T10:34:42;99325.31;;;9.79;43.92
26376;BME280;30544;42.196;24.336;2023-02-01T10:37:19;99328.31;;;10.13;42.40
26376;BME280;30544;42.196;24.336;2023-02-01T10:39:47;99324.88;;;10.58;41.96
26376;BME280;30544;42.196;24.336;2023-02-01T10:42:15;99335.03;;;9.70;42.61
26376;BME280;30544;42.196;24.336;2023-02-01T10:44:43;99324.47;;;9.79;43.51
26376;BME280;30544;42.196;24.336;2023-02-01T10:47:14;99335.66;;;10.19;42.50
26376;BME280;30544;42.196;24.336;2023-02-01T10:49:47;99333.34;;;9.69;44.40
26376;BME280;30544;42.196;24.336;2023-02-01T10:52:20;99322.88;;;9.48;43.69
26376;BME280;30544;42.196;24.336;2023-02-01T10:54:48;99317.19;;;9.54;44.24
26376;BME280;30544;42.196;24.336;2023-02-01T10:57:21;99312.06;;;9.58;43.47
26376;BME280;30544;42.196;24.336;2023-02-01T10:59:50;99310.09;;;9.47;44.43
26376;BME280;30544;42.196;24.336;2023-02-01T11:02:25;99306.19;;;9.13;45.34
26376;BME280;30544;42.196;24.336;2023-02-01T11:05:00;99304.69;;;9.52;44.76
26376;BME280;30544;42.196;24.336;2023-02-01T11:07:27;99295.19;;;9.94;44.34
26376;BME280;30544;42.196;24.336;2023-02-01T11:09:55;99289.16;;;9.98;44.75
26376;BME280;30544;42.196;24.336;2023-02-01T11:12:31;99286.75;;;9.89;44.13
26376;BME280;30544;42.196;24.336;2023-02-01T11:15:02;99285.16;;;10.05;44.37
26376;BME280;30544;42.196;24.336;2023-02-01T11:17:35;99287.63;;;9.78;44.53
26376;BME280;30544;42.196;24.336;2023-02-01T11:20:11;99271.09;;;9.95;43.44
26376;BME280;30544;42.196;24.336;2023-02-01T11:22:45;99262.75;;;10.30;43.45
26376;BME280;30544;42.196;24.336;2023-02-01T11:25:14;99272.44;;;9.92;42.66
26376;BME280;30544;42.196;24.336;2023-02-01T11:27:43;99264.41;;;10.71;43.33
26376;BME280;30544;42.196;24.336;2023-02-01T11:30:15;99262.16;;;10.05;43.79
26376;BME280;30544;42.196;24.336;2023-02-01T11:32:44;99255.66;;;10.63;42.40
26376;BME280;30544;42.196;24.336;2023-02-01T11:35:16;99251.31;;;11.12;41.99
26376;BME280;30544;42.196;24.336;2023-02-01T11:37:50;99259.06;;;10.53;42.68
26376;BME280;30544;42.196;24.336;2023-02-01T11:40:26;99249.53;;;11.06;41.84
26376;BME280;30544;42.196;24.336;2023-02-01T11:42:55;99250.22;;;10.68;41.85
26376;BME280;30544;42.196;24.336;2023-02-01T11:45:25;99258.78;;;10.95;40.75
26376;BME280;30544;42.196;24.336;2023-02-01T11:47:57;99255.78;;;11.13;41.64
26376;BME280;30544;42.196;24.336;2023-02-01T11:50:35;99269.19;;;10.59;42.13
26376;BME280;30544;42.196;24.336;2023-02-01T11:55:59;99238.50;;;11.78;41.01
26376;BME280;30544;42.196;24.336;2023-02-01T11:58:56;99251.09;;;11.47;40.34
26376;BME280;30544;42.196;24.336;2023-02-01T12:01:36;99238.06;;;10.85;40.43
26376;BME280;30544;42.196;24.336;2023-02-01T12:07:05;99231.53;;;11.08;39.04
26376;BME280;30544;42.196;24.336;2023-02-01T12:09:45;99231.13;;;11.33;39.18
26376;BME280;30544;42.196;24.336;2023-02-01T12:12:19;99216.97;;;11.52;39.35
26376;BME280;30544;42.196;24.336;2023-02-01T12:15:08;99232.88;;;11.06;37.93
26376;BME280;30544;42.196;24.336;2023-02-01T12:18:00;99229.00;;;11.57;38.54
26376;BME280;30544;42.196;24.336;2023-02-01T12:20:50;99226.97;;;11.69;38.34
26376;BME280;30544;42.196;24.336;2023-02-01T12:23:33;99230.88;;;11.52;38.38
26376;BME280;30544;42.196;24.336;2023-02-01T12:26:17;99226.66;;;10.99;39.28
26376;BME280;30544;42.196;24.336;2023-02-01T12:29:07;99230.44;;;10.64;39.00
26376;BME280;30544;42.196;24.336;2023-02-01T12:31:48;99218.59;;;10.97;40.16
26376;BME280;30544;42.196;24.336;2023-02-01T12:34:28;99226.13;;;10.57;40.69
26376;BME280;30544;42.196;24.336;2023-02-01T12:37:10;99224.38;;;9.87;42.05
26376;BME280;30544;42.196;24.336;2023-02-01T12:39:44;99229.66;;;10.52;41.30
26376;BME280;30544;42.196;24.336;2023-02-01T12:42:19;99230.78;;;10.39;41.70
26376;BME280;30544;42.196;24.336;2023-02-01T12:44:51;99241.69;;;10.58;40.28
26376;BME280;30544;42.196;24.336;2023-02-01T12:47:26;99244.47;;;11.03;39.26
26376;BME280;30544;42.196;24.336;2023-02-01T12:49:58;99246.16;;;10.59;39.65
26376;BME280;30544;42.196;24.336;2023-02-01T12:52:36;99234.72;;;11.00;39.24
26376;BME280;30544;42.196;24.336;2023-02-01T12:55:10;99252.69;;;10.81;39.53
26376;BME280;30544;42.196;24.336;2023-02-01T12:57:44;99235.22;;;10.40;39.46
26376;BME280;30544;42.196;24.336;2023-02-01T13:00:20;99229.06;;;10.50;39.79
26376;BME280;30544;42.196;24.336;2023-02-01T13:02:53;99235.50;;;10.96;39.03
26376;BME280;30544;42.196;24.336;2023-02-01T13:05:22;99234.25;;;10.75;38.94
26376;BME280;30544;42.196;24.336;2023-02-01T13:07:57;99231.09;;;10.54;38.80
26376;BME280;30544;42.196;24.336;2023-02-01T13:10:32;99236.28;;;10.79;38.54
26376;BME280;30544;42.196;24.336;2023-02-01T13:13:05;99228.13;;;10.90;39.07
26376;BME280;30544;42.196;24.336;2023-02-01T13:15:40;99225.31;;;11.01;38.09
26376;BME280;30544;42.196;24.336;2023-02-01T13:18:14;99226.81;;;10.92;38.82
26376;BME280;30544;42.196;24.336;2023-02-01T13:20:47;99226.94;;;11.14;38.63
26376;BME280;30544;42.196;24.336;2023-02-01T13:23:22;99235.03;;;10.87;38.42
26376;BME280;30544;42.196;24.336;2023-02-01T13:25:52;99230.19;;;10.37;38.15
26376;BME280;30544;42.196;24.336;2023-02-01T13:28:25;99238.59;;;10.71;37.87